sensor_id;sensor_type;location;lat;lon;timestamp;P1;durP1;ratioP1;P2;durP2;ratioP2
35693;SDS011;21812;55.536;37.664;2023-03-23T00:01:20;3.47;;;1.90;;
35693;SDS011;21812;55.536;37.664;2023-03-23T00:03:48;2.40;;;1.85;;
35693;SDS011;21812;55.536;37.664;2023-03-23T00:06:16;2.72;;;1.85;;
35693;SDS011;21812;55.536;37.664;2023-03-23T00:08:43;1.88;;;1.40;;
35693;SDS011;21812;55.536;37.664;2023-03-23T00:11:16;3.35;;;1.92;;
35693;SDS011;21812;55.536;37.664;2023-03-23T00:13:44;2.53;;;2.00;;
35693;SDS011;21812;55.536;37.664;2023-03-23T00:16:17;3.22;;;1.98;;
35693;SDS011;21812;55.536;37.664;2023-03-23T00:18:59;3.50;;;2.08;;
35693;SDS011;21812;55.536;37.664;2023-03-23T00:21:40;3.30;;;2.17;;
35693;SDS011;21812;55.536;37.664;2023-03-23T00:24:08;1.63;;;1.17;;
35693;SDS011;21812;55.536;37.664;2023-03-23T00:26:36;2.15;;;1.30;;
35693;SDS011;21812;55.536;37.664;2023-03-23T00:29:23;2.85;;;1.65;;
35693;SDS011;21812;55.536;37.664;2023-03-23T00:34:16;2.03;;;1.60;;
35693;SDS011;21812;55.536;37.664;2023-03-23T00:36:54;3.08;;;1.70;;
35693;SDS011;21812;55.536;37.664;2023-03-23T00:39:22;3.15;;;1.80;;
35693;SDS011;21812;55.536;37.664;2023-03-23T00:41:52;1.60;;;1.30;;
35693;SDS011;21812;55.536;37.664;2023-03-23T00:44:19;4.97;;;2.05;;
35693;SDS011;21812;55.536;37.664;2023-03-23T00:46:48;2.58;;;2.00;;
35693;SDS011;21812;55.536;37.664;2023-03-23T00:49:16;1.92;;;1.60;;
35693;SDS011;21812;55.536;37.664;2023-03-23T00:51:44;3.80;;;1.70;;
35693;SDS011;21812;55.536;37.664;2023-03-23T00:54:11;1.67;;;1.25;;
35693;SDS011;21812;55.536;37.664;2023-03-23T00:56:37;2.60;;;1.60;;
35693;SDS011;21812;55.536;37.664;2023-03-23T00:59:04;1.88;;;1.30;;
35693;SDS011;21812;55.536;37.664;2023-03-23T01:01:30;4.90;;;1.80;;
35693;SDS011;21812;55.536;37.664;2023-03-23T01:03:57;4.38;;;1.90;;
35693;SDS011;21812;55.536;37.664;2023-03-23T01:06:27;3.42;;;1.77;;
35693;SDS011;21812;55.536;37.664;2023-03-23T01:08:53;3.35;;;1.80;;
35693;SDS011;21812;55.536;37.664;2023-03-23T01:11:19;2.47;;;2.00;;
35693;SDS011;21812;55.536;37.664;2023-03-23T01:13:45;2.08;;;1.23;;
35693;SDS011;21812;55.536;37.664;2023-03-23T01:16:12;3.60;;;2.40;;
35693;SDS011;21812;55.536;37.664;2023-03-23T01:18:38;2.80;;;2.03;;
35693;SDS011;21812;55.536;37.664;2023-03-23T01:21:09;2.20;;;1.88;;
35693;SDS011;21812;55.536;37.664;2023-03-23T01:23:37;4.35;;;1.80;;
35693;SDS011;21812;55.536;37.664;2023-03-23T01:26:04;3.17;;;2.13;;
35693;SDS011;21812;55.536;37.664;2023-03-23T01:28:31;1.67;;;1.50;;
35693;SDS011;21812;55.536;37.664;2023-03-23T01:31:03;2.45;;;1.70;;
35693;SDS011;21812;55.536;37.664;2023-03-23T01:33:31;2.13;;;1.40;;
35693;SDS011;21812;55.536;37.664;2023-03-23T01:35:58;2.53;;;1.52;;
35693;SDS011;21812;55.536;37.664;2023-03-23T01:38:27;2.45;;;1.75;;
35693;SDS011;21812;55.536;37.664;2023-03-23T01:40:53;2.83;;;2.00;;
35693;SDS011;21812;55.536;37.664;2023-03-23T01:43:19;2.53;;;1.60;;
35693;SDS011;21812;55.536;37.664;2023-03-23T01:45:44;2.55;;;1.33;;
35693;SDS011;21812;55.536;37.664;2023-03-23T01:48:17;2.00;;;1.27;;
35693;SDS011;21812;55.536;37.664;2023-03-23T01:50:48;2.92;;;1.85;;
35693;SDS011;21812;55.536;37.664;2023-03-23T01:53:19;1.75;;;1.35;;
35693;SDS011;21812;55.536;37.664;2023-03-23T01:55:47;2.85;;;1.60;;
35693;SDS011;21812;55.536;37.664;2023-03-23T01:58:18;2.63;;;1.40;;
35693;SDS011;21812;55.536;37.664;2023-03-23T02:00:52;2.92;;;1.52;;
35693;SDS011;21812;55.536;37.664;2023-03-23T02:03:19;2.67;;;1.50;;
35693;SDS011;21812;55.536;37.664;2023-03-23T02:05:48;1.85;;;1.40;;
35693;SDS011;21812;55.536;37.664;2023-03-23T02:08:23;4.32;;;1.65;;
35693;SDS011;21812;55.536;37.664;2023-03-23T02:10:52;1.88;;;1.42;;
35693;SDS011;21812;55.536;37.664;2023-03-23T02:13:18;1.52;;;1.27;;
35693;SDS011;21812;55.536;37.664;2023-03-23T02:18:16;2.70;;;1.42;;
35693;SDS011;21812;55.536;37.664;2023-03-23T02:34:41;2.90;;;1.10;;
35693;SDS011;21812;55.536;37.664;2023-03-23T02:37:20;1.73;;;0.95;;
35693;SDS011;21812;55.536;37.664;2023-03-23T02:39:55;2.05;;;1.50;;
35693;SDS011;21812;55.536;37.664;2023-03-23T02:42:33;2.53;;;1.75;;
35693;SDS011;21812;55.536;37.664;2023-03-23T02:45:03;2.58;;;1.95;;
35693;SDS011;21812;55.536;37.664;2023-03-23T02:47:32;3.28;;;2.33;;
35693;SDS011;21812;55.536;37.664;2023-03-23T02:50:02;4.03;;;2.42;;
35693;SDS011;21812;55.536;37.664;2023-03-23T02:52:30;3.38;;;1.75;;
35693;SDS011;21812;55.536;37.664;2023-03-23T02:55:00;4.63;;;2.85;;
35693;SDS011;21812;55.536;37.664;2023-03-23T02:57:28;4.25;;;2.53;;
35693;SDS011;21812;55.536;37.664;2023-03-23T02:59:56;4.47;;;3.15;;
35693;SDS011;21812;55.536;37.664;2023-03-23T03:02:26;2.92;;;1.67;;
35693;SDS011;21812;55.536;37.664;2023-03-23T03:08:02;3.28;;;1.67;;
35693;SDS011;21812;55.536;37.664;2023-03-23T03:10:51;4.60;;;2.60;;
35693;SDS011;21812;55.536;37.664;2023-03-23T03:21:21;3.42;;;2.25;;
35693;SDS011;21812;55.536;37.664;2023-03-23T03:23:55;4.60;;;1.95;;
35693;SDS011;21812;55.536;37.664;2023-03-23T03:26:27;3.55;;;2.50;;
35693;SDS011;21812;55.536;37.664;2023-03-23T03:29:20;3.65;;;1.90;;
35693;SDS011;21812;55.536;37.664;2023-03-23T03:31:51;9.02;;;1.90;;
35693;SDS011;21812;55.536;37.664;2023-03-23T03:34:21;4.13;;;1.95;;
35693;SDS011;21812;55.536;37.664;2023-03-23T03:36:50;6.15;;;2.60;;
35693;SDS011;21812;55.536;37.664;2023-03-23T03:39:19;5.32;;;2.90;;
35693;SDS011;21812;55.536;37.664;2023-03-23T03:41:47;7.00;;;3.17;;
35693;SDS011;21812;55.536;37.664;2023-03-23T03:44:13;7.47;;;2.90;;
35693;SDS011;21812;55.536;37.664;2023-03-23T03:46:40;4.55;;;2.30;;
35693;SDS011;21812;55.536;37.664;2023-03-23T03:49:06;5.80;;;2.40;;
35693;SDS011;21812;55.536;37.664;2023-03-23T03:51:38;6.90;;;3.75;;
35693;SDS011;21812;55.536;37.664;2023-03-23T03:54:07;6.32;;;2.63;;
35693;SDS011;21812;55.536;37.664;2023-03-23T03:56:33;5.47;;;2.22;;
35693;SDS011;21812;55.536;37.664;2023-03-23T03:59:15;5.78;;;3.83;;
35693;SDS011;21812;55.536;37.664;2023-03-23T04:01:54;7.32;;;3.10;;
35693;SDS011;21812;55.536;37.664;2023-03-23T04:04:21;10.35;;;3.20;;
35693;SDS011;21812;55.536;37.664;2023-03-23T04:06:47;6.00;;;3.42;;
35693;SDS011;21812;55.536;37.664;2023-03-23T04:09:14;5.72;;;3.40;;
35693;SDS011;21812;55.536;37.664;2023-03-23T04:11:40;7.35;;;3.33;;
35693;SDS011;21812;55.536;37.664;2023-03-23T04:14:28;7.22;;;3.63;;
35693;SDS011;21812;55.536;37.664;2023-03-23T04:16:54;7.55;;;3.40;;
35693;SDS011;21812;55.536;37.664;2023-03-23T04:19:22;40.70;;;12.30;;
35693;SDS011;21812;55.536;37.664;2023-03-23T04:21:49;61.75;;;16.75;;
35693;SDS011;21812;55.536;37.664;2023-03-23T04:24:16;28.38;;;8.75;;
35693;SDS011;21812;55.536;37.664;2023-03-23T04:26:46;24.08;;;7.18;;
35693;SDS011;21812;55.536;37.664;2023-03-23T04:29:21;23.77;;;7.50;;
35693;SDS011;21812;55.536;37.664;2023-03-23T04:32:06;13.55;;;4.78;;
35693;SDS011;21812;55.536;37.664;2023-03-23T04:34:37;12.30;;;4.93;;
35693;SDS011;21812;55.536;37.664;2023-03-23T04:37:03;10.05;;;4.40;;
35693;SDS011;21812;55.536;37.664;2023-03-23T04:39:30;10.13;;;5.28;;
35693;SDS011;21812;55.536;37.664;2023-03-23T04:42:01;7.75;;;4.30;;
35693;SDS011;21812;55.536;37.664;2023-03-23T04:44:45;7.35;;;5.43;;
35693;SDS011;21812;55.536;37.664;2023-03-23T04:47:20;8.85;;;3.80;;
35693;SDS011;21812;55.536;37.664;2023-03-23T04:49:52;11.18;;;3.90;;
35693;SDS011;21812;55.536;37.664;2023-03-23T04:52:25;8.40;;;4.43;;
35693;SDS011;21812;55.536;37.664;2023-03-23T04:54:56;7.50;;;4.43;;
35693;SDS011;21812;55.536;37.664;2023-03-23T04:57:23;10.63;;;4.75;;
35693;SDS011;21812;55.536;37.664;2023-03-23T05:00:10;9.27;;;4.50;;
35693;SDS011;21812;55.536;37.664;2023-03-23T05:02:42;9.73;;;4.35;;
35693;SDS011;21812;55.536;37.664;2023-03-23T05:05:10;6.57;;;4.15;;
35693;SDS011;21812;55.536;37.664;2023-03-23T05:07:37;6.95;;;4.38;;
35693;SDS011;21812;55.536;37.664;2023-03-23T05:10:04;8.00;;;3.70;;
35693;SDS011;21812;55.536;37.664;2023-03-23T05:12:30;9.70;;;5.05;;
35693;SDS011;21812;55.536;37.664;2023-03-23T05:15:00;7.82;;;4.70;;
35693;SDS011;21812;55.536;37.664;2023-03-23T05:17:28;9.02;;;5.10;;
35693;SDS011;21812;55.536;37.664;2023-03-23T05:19:57;10.98;;;6.10;;
35693;SDS011;21812;55.536;37.664;2023-03-23T05:22:34;11.50;;;5.30;;
35693;SDS011;21812;55.536;37.664;2023-03-23T05:25:03;8.70;;;4.13;;
35693;SDS011;21812;55.536;37.664;2023-03-23T05:27:33;9.52;;;4.50;;
35693;SDS011;21812;55.536;37.664;2023-03-23T05:30:04;6.00;;;4.00;;
35693;SDS011;21812;55.536;37.664;2023-03-23T05:32:32;9.02;;;4.53;;
35693;SDS011;21812;55.536;37.664;2023-03-23T05:35:17;8.02;;;5.75;;
35693;SDS011;21812;55.536;37.664;2023-03-23T05:37:44;8.40;;;4.72;;
35693;SDS011;21812;55.536;37.664;2023-03-23T05:40:10;9.35;;;4.70;;
35693;SDS011;21812;55.536;37.664;2023-03-23T05:42:49;12.32;;;5.70;;
35693;SDS011;21812;55.536;37.664;2023-03-23T05:45:20;9.32;;;5.28;;
35693;SDS011;21812;55.536;37.664;2023-03-23T05:47:49;9.88;;;5.40;;
35693;SDS011;21812;55.536;37.664;2023-03-23T05:50:18;9.07;;;5.05;;
35693;SDS011;21812;55.536;37.664;2023-03-23T05:52:44;7.45;;;4.95;;
35693;SDS011;21812;55.536;37.664;2023-03-23T05:55:12;11.15;;;4.30;;
35693;SDS011;21812;55.536;37.664;2023-03-23T05:57:41;8.60;;;5.07;;
35693;SDS011;21812;55.536;37.664;2023-03-23T06:00:20;11.43;;;4.60;;
35693;SDS011;21812;55.536;37.664;2023-03-23T06:02:54;7.90;;;4.32;;
35693;SDS011;21812;55.536;37.664;2023-03-23T06:05:29;7.15;;;4.28;;
35693;SDS011;21812;55.536;37.664;2023-03-23T06:07:56;6.82;;;4.80;;
35693;SDS011;21812;55.536;37.664;2023-03-23T06:10:23;7.72;;;5.50;;
35693;SDS011;21812;55.536;37.664;2023-03-23T06:12:59;7.15;;;4.90;;
35693;SDS011;21812;55.536;37.664;2023-03-23T06:15:45;7.28;;;4.93;;
35693;SDS011;21812;55.536;37.664;2023-03-23T06:18:29;7.43;;;5.32;;
35693;SDS011;21812;55.536;37.664;2023-03-23T06:21:18;7.82;;;4.20;;
35693;SDS011;21812;55.536;37.664;2023-03-23T06:24:05;7.85;;;4.65;;
35693;SDS011;21812;55.536;37.664;2023-03-23T06:26:32;8.50;;;5.35;;
35693;SDS011;21812;55.536;37.664;2023-03-23T06:29:02;9.07;;;4.53;;
35693;SDS011;21812;55.536;37.664;2023-03-23T06:31:37;10.40;;;5.90;;
35693;SDS011;21812;55.536;37.664;2023-03-23T06:34:08;8.48;;;4.43;;
35693;SDS011;21812;55.536;37.664;2023-03-23T06:36:55;8.93;;;5.35;;
35693;SDS011;21812;55.536;37.664;2023-03-23T06:39:44;8.13;;;4.60;;
35693;SDS011;21812;55.536;37.664;2023-03-23T06:42:28;8.18;;;5.20;;
35693;SDS011;21812;55.536;37.664;2023-03-23T06:45:14;7.65;;;5.03;;
35693;SDS011;21812;55.536;37.664;2023-03-23T06:47:41;8.57;;;4.78;;
35693;SDS011;21812;55.536;37.664;2023-03-23T06:50:07;8.52;;;5.55;;
35693;SDS011;21812;55.536;37.664;2023-03-23T06:52:34;12.40;;;4.57;;
35693;SDS011;21812;55.536;37.664;2023-03-23T06:55:00;10.13;;;6.50;;
35693;SDS011;21812;55.536;37.664;2023-03-23T06:57:26;9.63;;;4.78;;
35693;SDS011;21812;55.536;37.664;2023-03-23T06:59:52;7.10;;;4.70;;
35693;SDS011;21812;55.536;37.664;2023-03-23T07:02:18;8.68;;;4.63;;
35693;SDS011;21812;55.536;37.664;2023-03-23T07:04:48;8.30;;;4.60;;
35693;SDS011;21812;55.536;37.664;2023-03-23T07:07:19;7.50;;;4.90;;
35693;SDS011;21812;55.536;37.664;2023-03-23T07:09:50;10.65;;;4.55;;
35693;SDS011;21812;55.536;37.664;2023-03-23T07:12:20;8.57;;;4.85;;
35693;SDS011;21812;55.536;37.664;2023-03-23T07:14:47;10.73;;;5.78;;
35693;SDS011;21812;55.536;37.664;2023-03-23T07:17:13;8.70;;;5.28;;
35693;SDS011;21812;55.536;37.664;2023-03-23T07:19:50;7.20;;;4.70;;
35693;SDS011;21812;55.536;37.664;2023-03-23T07:22:20;7.20;;;4.70;;
35693;SDS011;21812;55.536;37.664;2023-03-23T07:24:52;8.98;;;5.20;;
35693;SDS011;21812;55.536;37.664;2023-03-23T07:27:24;10.30;;;4.60;;
35693;SDS011;21812;55.536;37.664;2023-03-23T07:29:53;7.45;;;4.45;;
35693;SDS011;21812;55.536;37.664;2023-03-23T07:32:23;10.10;;;4.00;;
35693;SDS011;21812;55.536;37.664;2023-03-23T07:34:49;7.82;;;4.35;;
35693;SDS011;21812;55.536;37.664;2023-03-23T07:37:24;7.13;;;4.45;;
35693;SDS011;21812;55.536;37.664;2023-03-23T07:39:50;9.20;;;4.43;;
35693;SDS011;21812;55.536;37.664;2023-03-23T07:42:18;6.22;;;4.35;;
35693;SDS011;21812;55.536;37.664;2023-03-23T07:44:54;5.68;;;4.35;;
35693;SDS011;21812;55.536;37.664;2023-03-23T07:47:20;5.78;;;4.18;;
35693;SDS011;21812;55.536;37.664;2023-03-23T07:49:47;8.60;;;4.68;;
35693;SDS011;21812;55.536;37.664;2023-03-23T07:52:23;6.38;;;4.47;;
35693;SDS011;21812;55.536;37.664;2023-03-23T07:54:49;6.50;;;4.07;;
35693;SDS011;21812;55.536;37.664;2023-03-23T07:57:25;7.13;;;4.50;;
35693;SDS011;21812;55.536;37.664;2023-03-23T07:59:52;5.60;;;4.20;;
35693;SDS011;21812;55.536;37.664;2023-03-23T08:02:18;9.15;;;4.90;;
35693;SDS011;21812;55.536;37.664;2023-03-23T08:05:07;6.50;;;4.32;;
35693;SDS011;21812;55.536;37.664;2023-03-23T08:07:49;6.75;;;4.25;;
35693;SDS011;21812;55.536;37.664;2023-03-23T08:13:17;7.68;;;4.88;;
35693;SDS011;21812;55.536;37.664;2023-03-23T08:15:46;7.10;;;4.15;;
35693;SDS011;21812;55.536;37.664;2023-03-23T08:18:12;8.93;;;4.93;;
35693;SDS011;21812;55.536;37.664;2023-03-23T08:20:57;6.75;;;4.13;;
35693;SDS011;21812;55.536;37.664;2023-03-23T08:23:32;6.82;;;4.95;;
35693;SDS011;21812;55.536;37.664;2023-03-23T08:26:24;5.20;;;4.18;;
35693;SDS011;21812;55.536;37.664;2023-03-23T08:29:12;9.70;;;4.63;;
35693;SDS011;21812;55.536;37.664;2023-03-23T08:31:57;5.40;;;4.72;;
35693;SDS011;21812;55.536;37.664;2023-03-23T08:34:26;7.00;;;3.95;;
35693;SDS011;21812;55.536;37.664;2023-03-23T08:37:06;5.57;;;4.22;;
35693;SDS011;21812;55.536;37.664;2023-03-23T08:39:50;7.13;;;4.00;;
35693;SDS011;21812;55.536;37.664;2023-03-23T08:42:41;5.20;;;4.18;;
35693;SDS011;21812;55.536;37.664;2023-03-23T08:45:26;5.28;;;3.65;;
35693;SDS011;21812;55.536;37.664;2023-03-23T08:47:52;6.60;;;4.80;;
35693;SDS011;21812;55.536;37.664;2023-03-23T08:50:55;6.00;;;4.30;;
35693;SDS011;21812;55.536;37.664;2023-03-23T08:53:40;3.95;;;3.38;;
35693;SDS011;21812;55.536;37.664;2023-03-23T08:56:26;4.65;;;3.33;;
35693;SDS011;21812;55.536;37.664;2023-03-23T08:59:18;5.53;;;4.53;;
35693;SDS011;21812;55.536;37.664;2023-03-23T09:01:55;5.75;;;4.30;;
35693;SDS011;21812;55.536;37.664;2023-03-23T09:04:27;5.20;;;4.10;;
35693;SDS011;21812;55.536;37.664;2023-03-23T09:07:12;4.38;;;3.30;;
35693;SDS011;21812;55.536;37.664;2023-03-23T09:09:40;4.38;;;3.85;;
35693;SDS011;21812;55.536;37.664;2023-03-23T09:12:09;5.32;;;3.58;;
35693;SDS011;21812;55.536;37.664;2023-03-23T09:14:36;6.35;;;3.70;;
35693;SDS011;21812;55.536;37.664;2023-03-23T09:17:02;6.75;;;3.67;;
35693;SDS011;21812;55.536;37.664;2023-03-23T09:19:29;4.30;;;3.28;;
35693;SDS011;21812;55.536;37.664;2023-03-23T09:21:55;5.75;;;3.80;;
35693;SDS011;21812;55.536;37.664;2023-03-23T09:24:21;4.63;;;3.38;;
35693;SDS011;21812;55.536;37.664;2023-03-23T09:26:47;6.35;;;3.97;;
35693;SDS011;21812;55.536;37.664;2023-03-23T09:29:12;4.80;;;4.05;;
35693;SDS011;21812;55.536;37.664;2023-03-23T09:31:38;8.48;;;4.43;;
35693;SDS011;21812;55.536;37.664;2023-03-23T09:34:07;4.68;;;3.38;;
35693;SDS011;21812;55.536;37.664;2023-03-23T09:36:35;7.57;;;4.15;;
35693;SDS011;21812;55.536;37.664;2023-03-23T09:39:04;8.00;;;4.40;;
35693;SDS011;21812;55.536;37.664;2023-03-23T09:55:09;4.28;;;3.35;;
35693;SDS011;21812;55.536;37.664;2023-03-23T09:57:53;3.88;;;3.00;;
35693;SDS011;21812;55.536;37.664;2023-03-23T10:03:02;3.45;;;3.15;;
35693;SDS011;21812;55.536;37.664;2023-03-23T10:08:38;4.20;;;3.53;;
35693;SDS011;21812;55.536;37.664;2023-03-23T10:16:21;4.43;;;3.97;;
35693;SDS011;21812;55.536;37.664;2023-03-23T10:21:30;5.88;;;2.72;;
35693;SDS011;21812;55.536;37.664;2023-03-23T10:24:01;2.92;;;2.40;;
35693;SDS011;21812;55.536;37.664;2023-03-23T10:32:03;3.10;;;2.40;;
35693;SDS011;21812;55.536;37.664;2023-03-23T10:37:13;3.25;;;2.95;;
35693;SDS011;21812;55.536;37.664;2023-03-23T10:42:30;3.70;;;2.85;;
35693;SDS011;21812;55.536;37.664;2023-03-23T10:44:58;3.28;;;2.45;;
35693;SDS011;21812;55.536;37.664;2023-03-23T10:47:25;3.05;;;2.75;;
35693;SDS011;21812;55.536;37.664;2023-03-23T10:49:59;6.07;;;3.90;;
35693;SDS011;21812;55.536;37.664;2023-03-23T10:55:06;2.67;;;2.28;;
35693;SDS011;21812;55.536;37.664;2023-03-23T10:57:36;3.08;;;2.58;;
35693;SDS011;21812;55.536;37.664;2023-03-23T11:00:14;3.75;;;2.72;;
35693;SDS011;21812;55.536;37.664;2023-03-23T11:02:44;4.78;;;2.83;;
35693;SDS011;21812;55.536;37.664;2023-03-23T11:05:22;3.05;;;2.25;;
35693;SDS011;21812;55.536;37.664;2023-03-23T11:07:55;4.93;;;2.30;;
35693;SDS011;21812;55.536;37.664;2023-03-23T11:10:26;5.32;;;2.70;;
35693;SDS011;21812;55.536;37.664;2023-03-23T11:12:58;3.10;;;2.80;;
35693;SDS011;21812;55.536;37.664;2023-03-23T11:15:30;3.22;;;2.40;;
35693;SDS011;21812;55.536;37.664;2023-03-23T11:18:03;2.25;;;2.05;;
35693;SDS011;21812;55.536;37.664;2023-03-23T11:20:34;2.42;;;2.10;;
35693;SDS011;21812;55.536;37.664;2023-03-23T11:23:15;2.67;;;2.20;;
35693;SDS011;21812;55.536;37.664;2023-03-23T11:29:04;2.30;;;2.10;;
35693;SDS011;21812;55.536;37.664;2023-03-23T11:31:44;2.67;;;2.38;;
35693;SDS011;21812;55.536;37.664;2023-03-23T11:34:17;2.92;;;2.20;;
35693;SDS011;21812;55.536;37.664;2023-03-23T11:36:51;2.28;;;2.08;;
35693;SDS011;21812;55.536;37.664;2023-03-23T11:39:27;3.53;;;2.30;;
35693;SDS011;21812;55.536;37.664;2023-03-23T11:41:54;2.22;;;1.85;;
35693;SDS011;21812;55.536;37.664;2023-03-23T11:44:23;3.00;;;2.10;;
35693;SDS011;21812;55.536;37.664;2023-03-23T11:49:42;3.60;;;1.95;;
35693;SDS011;21812;55.536;37.664;2023-03-23T11:52:20;2.38;;;1.98;;
35693;SDS011;21812;55.536;37.664;2023-03-23T11:54:54;2.72;;;2.42;;
35693;SDS011;21812;55.536;37.664;2023-03-23T11:57:28;7.45;;;2.42;;
35693;SDS011;21812;55.536;37.664;2023-03-23T11:59:55;4.65;;;2.33;;
35693;SDS011;21812;55.536;37.664;2023-03-23T12:19:37;2.85;;;2.25;;
35693;SDS011;21812;55.536;37.664;2023-03-23T12:27:44;4.43;;;2.85;;
35693;SDS011;21812;55.536;37.664;2023-03-23T12:32:58;3.60;;;2.58;;
35693;SDS011;21812;55.536;37.664;2023-03-23T12:43:47;3.55;;;2.58;;
35693;SDS011;21812;55.536;37.664;2023-03-23T12:51:51;3.72;;;2.53;;
35693;SDS011;21812;55.536;37.664;2023-03-23T12:59:40;3.72;;;2.60;;
35693;SDS011;21812;55.536;37.664;2023-03-23T13:02:18;4.90;;;2.88;;
35693;SDS011;21812;55.536;37.664;2023-03-23T13:04:50;3.90;;;2.90;;
35693;SDS011;21812;55.536;37.664;2023-03-23T13:07:23;4.55;;;2.95;;
35693;SDS011;21812;55.536;37.664;2023-03-23T13:12:29;7.22;;;5.40;;
35693;SDS011;21812;55.536;37.664;2023-03-23T13:17:48;5.65;;;2.65;;
35693;SDS011;21812;55.536;37.664;2023-03-23T13:20:34;4.05;;;3.28;;
35693;SDS011;21812;55.536;37.664;2023-03-23T13:23:18;7.63;;;4.57;;
35693;SDS011;21812;55.536;37.664;2023-03-23T13:28:34;6.03;;;3.58;;
35693;SDS011;21812;55.536;37.664;2023-03-23T13:31:33;4.95;;;2.75;;
35693;SDS011;21812;55.536;37.664;2023-03-23T13:34:05;5.75;;;3.03;;
35693;SDS011;21812;55.536;37.664;2023-03-23T13:36:44;3.40;;;2.47;;
35693;SDS011;21812;55.536;37.664;2023-03-23T14:03:10;3.47;;;2.42;;
35693;SDS011;21812;55.536;37.664;2023-03-23T14:13:28;6.50;;;2.65;;
35693;SDS011;21812;55.536;37.664;2023-03-23T14:16:05;3.90;;;2.80;;
35693;SDS011;21812;55.536;37.664;2023-03-23T14:24:30;2.75;;;2.40;;
35693;SDS011;21812;55.536;37.664;2023-03-23T14:29:45;3.63;;;2.67;;
35693;SDS011;21812;55.536;37.664;2023-03-23T14:32:22;6.80;;;2.97;;
35693;SDS011;21812;55.536;37.664;2023-03-23T14:34:51;3.88;;;2.92;;
35693;SDS011;21812;55.536;37.664;2023-03-23T14:37:18;5.30;;;2.88;;
35693;SDS011;21812;55.536;37.664;2023-03-23T14:39:46;3.97;;;2.95;;
35693;SDS011;21812;55.536;37.664;2023-03-23T14:42:15;5.10;;;3.38;;
35693;SDS011;21812;55.536;37.664;2023-03-23T14:44:44;4.18;;;3.10;;
35693;SDS011;21812;55.536;37.664;2023-03-23T14:47:23;4.95;;;3.03;;
35693;SDS011;21812;55.536;37.664;2023-03-23T14:49:53;3.85;;;2.60;;
35693;SDS011;21812;55.536;37.664;2023-03-23T14:52:21;5.00;;;2.83;;
35693;SDS011;21812;55.536;37.664;2023-03-23T14:54:49;4.43;;;3.05;;
35693;SDS011;21812;55.536;37.664;2023-03-23T14:59:41;4.97;;;3.10;;
35693;SDS011;21812;55.536;37.664;2023-03-23T15:02:14;3.13;;;2.67;;
35693;SDS011;21812;55.536;37.664;2023-03-23T15:04:47;4.07;;;2.75;;
35693;SDS011;21812;55.536;37.664;2023-03-23T15:07:15;6.72;;;3.22;;
35693;SDS011;21812;55.536;37.664;2023-03-23T15:09:43;4.63;;;2.92;;
35693;SDS011;21812;55.536;37.664;2023-03-23T15:12:21;3.45;;;2.72;;
35693;SDS011;21812;55.536;37.664;2023-03-23T15:14:58;5.82;;;2.70;;
35693;SDS011;21812;55.536;37.664;2023-03-23T15:17:31;4.30;;;2.60;;
35693;SDS011;21812;55.536;37.664;2023-03-23T15:20:43;5.70;;;3.45;;
35693;SDS011;21812;55.536;37.664;2023-03-23T15:22:55;7.50;;;2.72;;
35693;SDS011;21812;55.536;37.664;2023-03-23T15:27:54;4.75;;;2.50;;
35693;SDS011;21812;55.536;37.664;2023-03-23T15:32:59;3.28;;;2.30;;
35693;SDS011;21812;55.536;37.664;2023-03-23T15:35:27;3.83;;;2.30;;
35693;SDS011;21812;55.536;37.664;2023-03-23T15:37:58;6.88;;;2.90;;
35693;SDS011;21812;55.536;37.664;2023-03-23T15:40:26;3.63;;;2.45;;
35693;SDS011;21812;55.536;37.664;2023-03-23T15:48:28;4.85;;;2.97;;
35693;SDS011;21812;55.536;37.664;2023-03-23T15:50:55;10.48;;;3.90;;
35693;SDS011;21812;55.536;37.664;2023-03-23T15:55:53;9.52;;;4.32;;
35693;SDS011;21812;55.536;37.664;2023-03-23T15:58:19;22.23;;;6.40;;
35693;SDS011;21812;55.536;37.664;2023-03-23T16:00:45;13.60;;;4.93;;
35693;SDS011;21812;55.536;37.664;2023-03-23T16:03:23;8.55;;;3.80;;
35693;SDS011;21812;55.536;37.664;2023-03-23T16:05:55;7.40;;;4.20;;
35693;SDS011;21812;55.536;37.664;2023-03-23T16:08:24;4.95;;;2.90;;
35693;SDS011;21812;55.536;37.664;2023-03-23T16:10:51;5.68;;;2.50;;
35693;SDS011;21812;55.536;37.664;2023-03-23T16:13:16;10.98;;;3.60;;
35693;SDS011;21812;55.536;37.664;2023-03-23T16:15:43;5.60;;;3.30;;
35693;SDS011;21812;55.536;37.664;2023-03-23T16:18:16;10.52;;;3.25;;
35693;SDS011;21812;55.536;37.664;2023-03-23T16:20:43;5.00;;;3.33;;
35693;SDS011;21812;55.536;37.664;2023-03-23T16:23:09;4.90;;;2.92;;
35693;SDS011;21812;55.536;37.664;2023-03-23T16:25:35;6.35;;;3.53;;
35693;SDS011;21812;55.536;37.664;2023-03-23T16:28:01;8.25;;;3.75;;
35693;SDS011;21812;55.536;37.664;2023-03-23T16:30:27;4.97;;;3.28;;
35693;SDS011;21812;55.536;37.664;2023-03-23T16:32:57;6.68;;;2.78;;
35693;SDS011;21812;55.536;37.664;2023-03-23T16:35:23;7.07;;;2.85;;
35693;SDS011;21812;55.536;37.664;2023-03-23T16:37:50;3.33;;;2.25;;
35693;SDS011;21812;55.536;37.664;2023-03-23T16:40:17;4.80;;;2.92;;
35693;SDS011;21812;55.536;37.664;2023-03-23T16:42:44;5.82;;;3.10;;
35693;SDS011;21812;55.536;37.664;2023-03-23T16:45:10;4.80;;;2.88;;
35693;SDS011;21812;55.536;37.664;2023-03-23T16:47:38;5.35;;;2.58;;
35693;SDS011;21812;55.536;37.664;2023-03-23T16:50:06;6.88;;;3.20;;
35693;SDS011;21812;55.536;37.664;2023-03-23T16:52:36;13.75;;;4.25;;
35693;SDS011;21812;55.536;37.664;2023-03-23T16:55:02;6.60;;;3.00;;
35693;SDS011;21812;55.536;37.664;2023-03-23T16:57:29;10.63;;;4.32;;
35693;SDS011;21812;55.536;37.664;2023-03-23T16:59:56;10.30;;;3.67;;
35693;SDS011;21812;55.536;37.664;2023-03-23T17:02:23;4.43;;;3.38;;
35693;SDS011;21812;55.536;37.664;2023-03-23T17:04:49;4.70;;;3.53;;
35693;SDS011;21812;55.536;37.664;2023-03-23T17:07:15;4.45;;;2.92;;
35693;SDS011;21812;55.536;37.664;2023-03-23T17:09:40;5.95;;;3.22;;
35693;SDS011;21812;55.536;37.664;2023-03-23T17:12:06;6.30;;;3.53;;
35693;SDS011;21812;55.536;37.664;2023-03-23T17:14:32;5.55;;;2.67;;
35693;SDS011;21812;55.536;37.664;2023-03-23T17:16:58;6.00;;;3.60;;
35693;SDS011;21812;55.536;37.664;2023-03-23T17:19:24;5.70;;;3.35;;
35693;SDS011;21812;55.536;37.664;2023-03-23T17:21:50;9.95;;;3.95;;
35693;SDS011;21812;55.536;37.664;2023-03-23T17:24:16;7.82;;;2.88;;
35693;SDS011;21812;55.536;37.664;2023-03-23T17:26:42;6.38;;;3.08;;
35693;SDS011;21812;55.536;37.664;2023-03-23T17:29:08;8.90;;;3.95;;
35693;SDS011;21812;55.536;37.664;2023-03-23T17:31:34;7.80;;;3.55;;
35693;SDS011;21812;55.536;37.664;2023-03-23T17:34:00;6.35;;;3.33;;
35693;SDS011;21812;55.536;37.664;2023-03-23T17:36:26;6.43;;;3.40;;
35693;SDS011;21812;55.536;37.664;2023-03-23T17:38:51;7.32;;;3.63;;
35693;SDS011;21812;55.536;37.664;2023-03-23T17:41:17;8.30;;;4.45;;
35693;SDS011;21812;55.536;37.664;2023-03-23T17:43:45;6.95;;;3.95;;
35693;SDS011;21812;55.536;37.664;2023-03-23T17:46:11;10.82;;;3.83;;
35693;SDS011;21812;55.536;37.664;2023-03-23T17:48:37;4.43;;;2.97;;
35693;SDS011;21812;55.536;37.664;2023-03-23T17:51:03;5.13;;;3.05;;
35693;SDS011;21812;55.536;37.664;2023-03-23T17:53:30;8.98;;;3.70;;
35693;SDS011;21812;55.536;37.664;2023-03-23T17:55:57;3.95;;;2.80;;
35693;SDS011;21812;55.536;37.664;2023-03-23T17:58:23;5.57;;;3.35;;
35693;SDS011;21812;55.536;37.664;2023-03-23T18:00:51;7.72;;;3.35;;
35693;SDS011;21812;55.536;37.664;2023-03-23T18:03:18;4.03;;;2.58;;
35693;SDS011;21812;55.536;37.664;2023-03-23T18:05:43;5.28;;;3.25;;